sensor_id;sensor_type;location;lat;lon;timestamp;P1;durP1;ratioP1;P2;durP2;ratioP2
18933;SDS011;9599;53.706;10.384;2022-12-07T00:01:06;23.43;;;14.03;;
18933;SDS011;9599;53.706;10.384;2022-12-07T00:03:35;24.37;;;14.23;;
18933;SDS011;9599;53.706;10.384;2022-12-07T00:06:05;21.87;;;12.40;;
18933;SDS011;9599;53.706;10.384;2022-12-07T00:08:34;23.47;;;13.03;;
18933;SDS011;9599;53.706;10.384;2022-12-07T00:11:03;24.37;;;13.13;;
18933;SDS011;9599;53.706;10.384;2022-12-07T00:13:32;22.77;;;13.33;;
18933;SDS011;9599;53.706;10.384;2022-12-07T00:16:01;22.63;;;13.20;;
18933;SDS011;9599;53.706;10.384;2022-12-07T00:18:31;19.67;;;12.60;;
18933;SDS011;9599;53.706;10.384;2022-12-07T00:20:59;23.93;;;13.17;;
18933;SDS011;9599;53.706;10.384;2022-12-07T00:23:28;25.57;;;14.20;;
18933;SDS011;9599;53.706;10.384;2022-12-07T00:26:02;27.07;;;14.63;;
18933;SDS011;9599;53.706;10.384;2022-12-07T00:28:30;25.37;;;14.80;;
18933;SDS011;9599;53.706;10.384;2022-12-07T00:31:00;28.90;;;14.83;;
18933;SDS011;9599;53.706;10.384;2022-12-07T00:33:30;31.00;;;16.00;;
18933;SDS011;9599;53.706;10.384;2022-12-07T00:35:59;30.40;;;16.00;;
18933;SDS011;9599;53.706;10.384;2022-12-07T00:38:27;30.43;;;15.33;;
18933;SDS011;9599;53.706;10.384;2022-12-07T00:40:56;27.70;;;15.70;;
18933;SDS011;9599;53.706;10.384;2022-12-07T00:43:25;27.60;;;15.13;;
18933;SDS011;9599;53.706;10.384;2022-12-07T00:45:53;28.33;;;15.53;;
18933;SDS011;9599;53.706;10.384;2022-12-07T00:48:22;28.33;;;14.87;;
18933;SDS011;9599;53.706;10.384;2022-12-07T00:50:52;28.20;;;15.47;;
18933;SDS011;9599;53.706;10.384;2022-12-07T00:53:21;28.67;;;15.33;;
18933;SDS011;9599;53.706;10.384;2022-12-07T00:55:49;32.00;;;16.00;;
18933;SDS011;9599;53.706;10.384;2022-12-07T00:58:18;35.57;;;17.40;;
18933;SDS011;9599;53.706;10.384;2022-12-07T01:00:46;31.07;;;16.73;;
18933;SDS011;9599;53.706;10.384;2022-12-07T01:03:15;34.00;;;16.80;;
18933;SDS011;9599;53.706;10.384;2022-12-07T01:05:48;32.13;;;17.43;;
18933;SDS011;9599;53.706;10.384;2022-12-07T01:08:19;33.50;;;17.17;;
18933;SDS011;9599;53.706;10.384;2022-12-07T01:10:47;31.70;;;16.40;;
18933;SDS011;9599;53.706;10.384;2022-12-07T01:13:15;30.50;;;16.33;;
18933;SDS011;9599;53.706;10.384;2022-12-07T01:15:44;35.20;;;17.37;;
18933;SDS011;9599;53.706;10.384;2022-12-07T01:18:12;30.60;;;16.37;;
18933;SDS011;9599;53.706;10.384;2022-12-07T01:20:39;30.53;;;17.73;;
18933;SDS011;9599;53.706;10.384;2022-12-07T01:23:07;31.20;;;17.23;;
18933;SDS011;9599;53.706;10.384;2022-12-07T01:25:37;33.80;;;17.23;;
18933;SDS011;9599;53.706;10.384;2022-12-07T01:28:05;33.23;;;16.97;;
18933;SDS011;9599;53.706;10.384;2022-12-07T01:30:33;31.30;;;17.80;;
18933;SDS011;9599;53.706;10.384;2022-12-07T01:33:01;36.00;;;18.17;;
18933;SDS011;9599;53.706;10.384;2022-12-07T01:35:28;37.90;;;18.67;;
18933;SDS011;9599;53.706;10.384;2022-12-07T01:37:56;33.77;;;17.77;;
18933;SDS011;9599;53.706;10.384;2022-12-07T01:40:24;31.43;;;17.03;;
18933;SDS011;9599;53.706;10.384;2022-12-07T01:42:53;30.70;;;16.83;;
18933;SDS011;9599;53.706;10.384;2022-12-07T01:48:11;28.67;;;15.47;;
18933;SDS011;9599;53.706;10.384;2022-12-07T01:50:42;28.70;;;15.70;;
18933;SDS011;9599;53.706;10.384;2022-12-07T01:53:12;27.93;;;15.37;;
18933;SDS011;9599;53.706;10.384;2022-12-07T01:55:42;27.73;;;15.07;;
18933;SDS011;9599;53.706;10.384;2022-12-07T01:58:14;23.47;;;13.33;;
18933;SDS011;9599;53.706;10.384;2022-12-07T02:00:43;28.57;;;14.80;;
18933;SDS011;9599;53.706;10.384;2022-12-07T02:03:13;26.40;;;13.43;;
18933;SDS011;9599;53.706;10.384;2022-12-07T02:05:46;26.93;;;13.57;;
18933;SDS011;9599;53.706;10.384;2022-12-07T02:08:16;23.63;;;13.47;;
18933;SDS011;9599;53.706;10.384;2022-12-07T02:10:44;23.53;;;13.07;;
18933;SDS011;9599;53.706;10.384;2022-12-07T02:13:13;23.90;;;12.77;;
18933;SDS011;9599;53.706;10.384;2022-12-07T02:15:50;28.67;;;13.90;;
18933;SDS011;9599;53.706;10.384;2022-12-07T02:18:39;21.23;;;11.40;;
18933;SDS011;9599;53.706;10.384;2022-12-07T02:21:17;20.07;;;11.87;;
18933;SDS011;9599;53.706;10.384;2022-12-07T02:24:02;20.57;;;11.60;;
18933;SDS011;9599;53.706;10.384;2022-12-07T02:29:40;21.23;;;12.33;;
18933;SDS011;9599;53.706;10.384;2022-12-07T02:32:13;26.47;;;13.07;;
18933;SDS011;9599;53.706;10.384;2022-12-07T02:34:48;24.90;;;11.90;;
18933;SDS011;9599;53.706;10.384;2022-12-07T02:37:21;23.80;;;12.10;;
18933;SDS011;9599;53.706;10.384;2022-12-07T02:39:57;23.20;;;12.37;;
18933;SDS011;9599;53.706;10.384;2022-12-07T02:42:30;20.90;;;11.73;;
18933;SDS011;9599;53.706;10.384;2022-12-07T02:45:05;22.13;;;11.47;;
18933;SDS011;9599;53.706;10.384;2022-12-07T02:47:35;22.47;;;11.60;;
18933;SDS011;9599;53.706;10.384;2022-12-07T02:50:04;20.67;;;10.67;;
18933;SDS011;9599;53.706;10.384;2022-12-07T02:52:33;20.60;;;10.90;;
18933;SDS011;9599;53.706;10.384;2022-12-07T02:55:01;18.43;;;9.23;;
18933;SDS011;9599;53.706;10.384;2022-12-07T03:00:22;15.47;;;9.43;;
18933;SDS011;9599;53.706;10.384;2022-12-07T03:02:52;18.50;;;8.90;;
18933;SDS011;9599;53.706;10.384;2022-12-07T03:08:15;15.17;;;7.83;;
18933;SDS011;9599;53.706;10.384;2022-12-07T03:10:50;17.70;;;8.10;;
18933;SDS011;9599;53.706;10.384;2022-12-07T03:13:25;11.77;;;6.93;;
18933;SDS011;9599;53.706;10.384;2022-12-07T03:16:00;14.33;;;7.80;;
18933;SDS011;9599;53.706;10.384;2022-12-07T03:18:33;13.30;;;6.90;;
18933;SDS011;9599;53.706;10.384;2022-12-07T03:21:06;14.77;;;6.87;;
18933;SDS011;9599;53.706;10.384;2022-12-07T03:23:39;11.67;;;7.03;;
18933;SDS011;9599;53.706;10.384;2022-12-07T03:26:09;11.10;;;5.83;;
18933;SDS011;9599;53.706;10.384;2022-12-07T03:28:42;12.63;;;5.93;;
18933;SDS011;9599;53.706;10.384;2022-12-07T03:31:16;9.47;;;5.80;;
18933;SDS011;9599;53.706;10.384;2022-12-07T03:33:49;9.43;;;5.93;;
18933;SDS011;9599;53.706;10.384;2022-12-07T03:36:26;10.03;;;5.40;;
18933;SDS011;9599;53.706;10.384;2022-12-07T03:38:58;9.43;;;5.63;;
18933;SDS011;9599;53.706;10.384;2022-12-07T03:41:32;9.93;;;5.87;;
18933;SDS011;9599;53.706;10.384;2022-12-07T03:44:10;11.37;;;5.60;;
18933;SDS011;9599;53.706;10.384;2022-12-07T03:46:41;11.60;;;5.83;;
18933;SDS011;9599;53.706;10.384;2022-12-07T03:49:16;11.67;;;5.43;;
18933;SDS011;9599;53.706;10.384;2022-12-07T03:51:49;10.90;;;5.43;;
18933;SDS011;9599;53.706;10.384;2022-12-07T03:54:23;8.87;;;5.00;;
18933;SDS011;9599;53.706;10.384;2022-12-07T03:56:55;10.03;;;5.70;;
18933;SDS011;9599;53.706;10.384;2022-12-07T03:59:24;8.77;;;5.03;;
18933;SDS011;9599;53.706;10.384;2022-12-07T04:01:55;9.60;;;4.90;;
18933;SDS011;9599;53.706;10.384;2022-12-07T04:04:24;11.03;;;4.67;;
18933;SDS011;9599;53.706;10.384;2022-12-07T04:06:52;8.93;;;4.90;;
18933;SDS011;9599;53.706;10.384;2022-12-07T04:09:20;9.70;;;4.90;;
18933;SDS011;9599;53.706;10.384;2022-12-07T04:11:48;7.87;;;4.87;;
18933;SDS011;9599;53.706;10.384;2022-12-07T04:14:16;9.03;;;5.23;;
18933;SDS011;9599;53.706;10.384;2022-12-07T04:16:47;7.93;;;4.97;;
18933;SDS011;9599;53.706;10.384;2022-12-07T04:19:18;11.43;;;5.30;;
18933;SDS011;9599;53.706;10.384;2022-12-07T04:21:47;7.53;;;4.90;;
18933;SDS011;9599;53.706;10.384;2022-12-07T04:24:15;7.97;;;5.20;;
18933;SDS011;9599;53.706;10.384;2022-12-07T04:26:44;10.50;;;5.03;;
18933;SDS011;9599;53.706;10.384;2022-12-07T04:29:12;12.50;;;5.23;;
18933;SDS011;9599;53.706;10.384;2022-12-07T04:31:40;10.57;;;5.77;;
18933;SDS011;9599;53.706;10.384;2022-12-07T04:34:09;7.53;;;4.43;;
18933;SDS011;9599;53.706;10.384;2022-12-07T04:36:39;8.40;;;5.07;;
18933;SDS011;9599;53.706;10.384;2022-12-07T04:39:08;9.43;;;5.20;;
18933;SDS011;9599;53.706;10.384;2022-12-07T04:41:41;10.20;;;5.20;;
18933;SDS011;9599;53.706;10.384;2022-12-07T04:44:08;10.13;;;5.50;;
18933;SDS011;9599;53.706;10.384;2022-12-07T04:46:36;9.20;;;5.03;;
18933;SDS011;9599;53.706;10.384;2022-12-07T04:49:04;8.50;;;4.70;;
18933;SDS011;9599;53.706;10.384;2022-12-07T04:51:32;8.47;;;5.07;;
18933;SDS011;9599;53.706;10.384;2022-12-07T04:54:01;8.40;;;5.13;;
18933;SDS011;9599;53.706;10.384;2022-12-07T04:56:29;7.83;;;5.00;;
18933;SDS011;9599;53.706;10.384;2022-12-07T04:58:57;11.97;;;5.50;;
18933;SDS011;9599;53.706;10.384;2022-12-07T05:01:25;8.93;;;5.67;;
18933;SDS011;9599;53.706;10.384;2022-12-07T05:03:53;9.63;;;5.53;;
18933;SDS011;9599;53.706;10.384;2022-12-07T05:06:21;10.60;;;5.43;;
18933;SDS011;9599;53.706;10.384;2022-12-07T05:08:49;9.03;;;5.30;;
18933;SDS011;9599;53.706;10.384;2022-12-07T05:11:19;9.07;;;5.73;;
18933;SDS011;9599;53.706;10.384;2022-12-07T05:14:06;10.90;;;5.73;;
18933;SDS011;9599;53.706;10.384;2022-12-07T05:16:36;8.17;;;5.20;;
18933;SDS011;9599;53.706;10.384;2022-12-07T05:19:05;9.20;;;5.27;;
18933;SDS011;9599;53.706;10.384;2022-12-07T05:21:33;9.20;;;5.00;;
18933;SDS011;9599;53.706;10.384;2022-12-07T05:24:01;10.43;;;4.83;;
18933;SDS011;9599;53.706;10.384;2022-12-07T05:26:31;9.93;;;4.83;;
18933;SDS011;9599;53.706;10.384;2022-12-07T05:29:00;12.97;;;5.07;;
18933;SDS011;9599;53.706;10.384;2022-12-07T05:31:28;8.00;;;5.10;;
18933;SDS011;9599;53.706;10.384;2022-12-07T05:33:56;9.83;;;4.97;;
18933;SDS011;9599;53.706;10.384;2022-12-07T05:36:24;7.77;;;4.70;;
18933;SDS011;9599;53.706;10.384;2022-12-07T05:38:54;6.93;;;4.77;;
18933;SDS011;9599;53.706;10.384;2022-12-07T05:41:22;10.73;;;5.13;;
18933;SDS011;9599;53.706;10.384;2022-12-07T05:44:10;9.53;;;5.40;;
18933;SDS011;9599;53.706;10.384;2022-12-07T05:46:37;7.20;;;4.57;;
18933;SDS011;9599;53.706;10.384;2022-12-07T05:49:05;10.50;;;5.43;;
18933;SDS011;9599;53.706;10.384;2022-12-07T05:51:33;8.43;;;5.40;;
18933;SDS011;9599;53.706;10.384;2022-12-07T05:54:01;8.03;;;5.20;;
18933;SDS011;9599;53.706;10.384;2022-12-07T05:56:29;11.80;;;5.67;;
18933;SDS011;9599;53.706;10.384;2022-12-07T05:58:57;11.17;;;6.30;;
18933;SDS011;9599;53.706;10.384;2022-12-07T06:01:44;13.10;;;5.57;;
18933;SDS011;9599;53.706;10.384;2022-12-07T06:04:12;12.70;;;5.67;;
18933;SDS011;9599;53.706;10.384;2022-12-07T06:06:40;11.53;;;5.63;;
18933;SDS011;9599;53.706;10.384;2022-12-07T06:09:08;9.70;;;5.20;;
18933;SDS011;9599;53.706;10.384;2022-12-07T06:11:36;12.73;;;5.70;;
18933;SDS011;9599;53.706;10.384;2022-12-07T06:14:21;10.27;;;5.50;;
18933;SDS011;9599;53.706;10.384;2022-12-07T06:16:50;11.33;;;5.40;;
18933;SDS011;9599;53.706;10.384;2022-12-07T06:19:18;11.57;;;5.70;;
18933;SDS011;9599;53.706;10.384;2022-12-07T06:21:46;13.30;;;5.17;;
18933;SDS011;9599;53.706;10.384;2022-12-07T06:24:15;8.63;;;4.80;;
18933;SDS011;9599;53.706;10.384;2022-12-07T06:26:43;9.40;;;5.53;;
18933;SDS011;9599;53.706;10.384;2022-12-07T06:29:12;8.63;;;5.30;;
18933;SDS011;9599;53.706;10.384;2022-12-07T06:31:40;11.80;;;5.20;;
18933;SDS011;9599;53.706;10.384;2022-12-07T06:34:11;7.53;;;4.90;;
18933;SDS011;9599;53.706;10.384;2022-12-07T06:36:40;9.70;;;5.60;;
18933;SDS011;9599;53.706;10.384;2022-12-07T06:39:08;9.73;;;5.83;;
18933;SDS011;9599;53.706;10.384;2022-12-07T06:41:36;10.53;;;5.50;;
18933;SDS011;9599;53.706;10.384;2022-12-07T06:44:05;9.33;;;5.63;;
18933;SDS011;9599;53.706;10.384;2022-12-07T06:46:33;13.50;;;6.80;;
18933;SDS011;9599;53.706;10.384;2022-12-07T06:49:02;12.83;;;6.10;;
18933;SDS011;9599;53.706;10.384;2022-12-07T06:51:32;11.93;;;6.70;;
18933;SDS011;9599;53.706;10.384;2022-12-07T06:54:01;11.77;;;6.60;;
18933;SDS011;9599;53.706;10.384;2022-12-07T06:56:29;14.07;;;7.63;;
18933;SDS011;9599;53.706;10.384;2022-12-07T06:58:57;13.30;;;7.90;;
18933;SDS011;9599;53.706;10.384;2022-12-07T07:01:25;13.30;;;7.53;;
18933;SDS011;9599;53.706;10.384;2022-12-07T07:03:53;14.33;;;7.20;;
18933;SDS011;9599;53.706;10.384;2022-12-07T07:06:20;11.93;;;6.70;;
18933;SDS011;9599;53.706;10.384;2022-12-07T07:08:50;10.73;;;6.87;;
18933;SDS011;9599;53.706;10.384;2022-12-07T07:11:18;10.93;;;6.43;;
18933;SDS011;9599;53.706;10.384;2022-12-07T07:13:46;10.07;;;6.30;;
18933;SDS011;9599;53.706;10.384;2022-12-07T07:16:14;11.73;;;6.47;;
18933;SDS011;9599;53.706;10.384;2022-12-07T07:18:42;10.47;;;6.53;;
18933;SDS011;9599;53.706;10.384;2022-12-07T07:21:10;8.87;;;6.57;;
18933;SDS011;9599;53.706;10.384;2022-12-07T07:23:38;10.43;;;6.60;;
18933;SDS011;9599;53.706;10.384;2022-12-07T07:26:07;8.93;;;6.30;;
18933;SDS011;9599;53.706;10.384;2022-12-07T07:28:35;10.47;;;5.90;;
18933;SDS011;9599;53.706;10.384;2022-12-07T07:31:03;10.57;;;6.20;;
18933;SDS011;9599;53.706;10.384;2022-12-07T07:33:31;10.27;;;6.20;;
18933;SDS011;9599;53.706;10.384;2022-12-07T07:35:59;11.57;;;5.87;;
18933;SDS011;9599;53.706;10.384;2022-12-07T07:38:27;8.80;;;5.87;;
18933;SDS011;9599;53.706;10.384;2022-12-07T07:40:55;10.50;;;6.67;;
18933;SDS011;9599;53.706;10.384;2022-12-07T07:43:24;9.23;;;5.30;;
18933;SDS011;9599;53.706;10.384;2022-12-07T07:45:52;10.23;;;5.70;;
18933;SDS011;9599;53.706;10.384;2022-12-07T07:48:20;13.30;;;6.43;;
18933;SDS011;9599;53.706;10.384;2022-12-07T07:50:49;7.37;;;5.03;;
18933;SDS011;9599;53.706;10.384;2022-12-07T07:53:16;19.67;;;6.83;;
18933;SDS011;9599;53.706;10.384;2022-12-07T07:55:49;15.90;;;6.73;;
18933;SDS011;9599;53.706;10.384;2022-12-07T07:58:18;11.50;;;6.20;;
18933;SDS011;9599;53.706;10.384;2022-12-07T08:00:48;11.60;;;5.60;;
18933;SDS011;9599;53.706;10.384;2022-12-07T08:03:15;11.03;;;5.27;;
18933;SDS011;9599;53.706;10.384;2022-12-07T08:05:43;11.40;;;5.40;;
18933;SDS011;9599;53.706;10.384;2022-12-07T08:08:11;10.60;;;5.17;;
18933;SDS011;9599;53.706;10.384;2022-12-07T08:10:39;8.30;;;4.80;;
18933;SDS011;9599;53.706;10.384;2022-12-07T08:13:07;8.87;;;4.90;;
18933;SDS011;9599;53.706;10.384;2022-12-07T08:15:40;9.73;;;4.63;;
18933;SDS011;9599;53.706;10.384;2022-12-07T08:18:10;8.73;;;5.00;;
18933;SDS011;9599;53.706;10.384;2022-12-07T08:20:39;7.77;;;4.43;;
18933;SDS011;9599;53.706;10.384;2022-12-07T08:23:08;8.17;;;4.73;;
18933;SDS011;9599;53.706;10.384;2022-12-07T08:25:37;9.20;;;4.50;;
18933;SDS011;9599;53.706;10.384;2022-12-07T08:28:06;7.50;;;4.10;;
18933;SDS011;9599;53.706;10.384;2022-12-07T08:30:34;10.53;;;4.60;;
18933;SDS011;9599;53.706;10.384;2022-12-07T08:33:03;8.33;;;4.13;;
18933;SDS011;9599;53.706;10.384;2022-12-07T08:35:33;8.17;;;4.27;;
18933;SDS011;9599;53.706;10.384;2022-12-07T08:38:01;9.53;;;4.20;;
18933;SDS011;9599;53.706;10.384;2022-12-07T08:40:29;6.43;;;3.70;;
18933;SDS011;9599;53.706;10.384;2022-12-07T08:42:57;7.47;;;3.90;;
18933;SDS011;9599;53.706;10.384;2022-12-07T08:45:25;10.93;;;4.17;;
18933;SDS011;9599;53.706;10.384;2022-12-07T08:47:54;7.27;;;3.40;;
18933;SDS011;9599;53.706;10.384;2022-12-07T08:50:25;12.70;;;3.87;;
18933;SDS011;9599;53.706;10.384;2022-12-07T08:52:56;8.03;;;3.43;;
18933;SDS011;9599;53.706;10.384;2022-12-07T08:55:26;6.40;;;3.80;;
18933;SDS011;9599;53.706;10.384;2022-12-07T08:57:55;7.10;;;3.60;;
18933;SDS011;9599;53.706;10.384;2022-12-07T09:00:24;5.70;;;3.30;;
18933;SDS011;9599;53.706;10.384;2022-12-07T09:02:53;7.47;;;3.90;;
18933;SDS011;9599;53.706;10.384;2022-12-07T09:05:21;4.77;;;3.20;;
18933;SDS011;9599;53.706;10.384;2022-12-07T09:07:50;10.13;;;3.83;;
18933;SDS011;9599;53.706;10.384;2022-12-07T09:10:24;6.23;;;3.70;;
18933;SDS011;9599;53.706;10.384;2022-12-07T09:12:52;5.37;;;3.30;;
18933;SDS011;9599;53.706;10.384;2022-12-07T09:15:20;7.17;;;3.20;;
18933;SDS011;9599;53.706;10.384;2022-12-07T09:17:48;6.17;;;3.10;;
18933;SDS011;9599;53.706;10.384;2022-12-07T09:20:16;7.53;;;3.77;;
18933;SDS011;9599;53.706;10.384;2022-12-07T09:22:48;7.70;;;3.70;;
18933;SDS011;9599;53.706;10.384;2022-12-07T09:25:16;6.03;;;3.43;;
18933;SDS011;9599;53.706;10.384;2022-12-07T09:27:45;10.23;;;4.50;;
18933;SDS011;9599;53.706;10.384;2022-12-07T09:30:14;11.27;;;4.10;;
18933;SDS011;9599;53.706;10.384;2022-12-07T09:32:42;7.33;;;2.83;;
18933;SDS011;9599;53.706;10.384;2022-12-07T09:35:10;4.87;;;3.03;;
18933;SDS011;9599;53.706;10.384;2022-12-07T09:37:37;6.37;;;3.20;;
18933;SDS011;9599;53.706;10.384;2022-12-07T09:40:06;5.83;;;2.90;;
18933;SDS011;9599;53.706;10.384;2022-12-07T09:42:35;9.17;;;2.83;;
18933;SDS011;9599;53.706;10.384;2022-12-07T09:45:10;4.97;;;2.90;;
18933;SDS011;9599;53.706;10.384;2022-12-07T09:47:41;7.03;;;2.77;;
18933;SDS011;9599;53.706;10.384;2022-12-07T09:50:12;11.30;;;5.27;;
18933;SDS011;9599;53.706;10.384;2022-12-07T09:52:42;6.77;;;3.20;;
18933;SDS011;9599;53.706;10.384;2022-12-07T09:55:13;6.13;;;2.63;;
18933;SDS011;9599;53.706;10.384;2022-12-07T09:57:42;5.60;;;2.77;;
18933;SDS011;9599;53.706;10.384;2022-12-07T10:00:13;8.93;;;2.93;;
18933;SDS011;9599;53.706;10.384;2022-12-07T10:02:43;4.80;;;3.03;;
18933;SDS011;9599;53.706;10.384;2022-12-07T10:05:14;6.03;;;2.87;;
18933;SDS011;9599;53.706;10.384;2022-12-07T10:07:50;7.37;;;2.70;;
18933;SDS011;9599;53.706;10.384;2022-12-07T10:10:19;5.23;;;2.60;;
18933;SDS011;9599;53.706;10.384;2022-12-07T10:12:55;7.57;;;3.03;;
18933;SDS011;9599;53.706;10.384;2022-12-07T10:18:19;5.97;;;2.40;;
18933;SDS011;9599;53.706;10.384;2022-12-07T10:20:48;7.83;;;2.70;;
18933;SDS011;9599;53.706;10.384;2022-12-07T10:23:17;8.30;;;2.57;;
18933;SDS011;9599;53.706;10.384;2022-12-07T10:25:45;5.03;;;2.23;;
18933;SDS011;9599;53.706;10.384;2022-12-07T10:28:14;7.70;;;2.33;;
18933;SDS011;9599;53.706;10.384;2022-12-07T10:30:52;7.53;;;2.60;;
18933;SDS011;9599;53.706;10.384;2022-12-07T10:33:29;5.03;;;2.37;;
18933;SDS011;9599;53.706;10.384;2022-12-07T10:36:00;6.33;;;2.53;;
18933;SDS011;9599;53.706;10.384;2022-12-07T10:38:44;4.93;;;2.23;;
18933;SDS011;9599;53.706;10.384;2022-12-07T10:41:13;5.10;;;2.20;;
18933;SDS011;9599;53.706;10.384;2022-12-07T10:43:46;6.13;;;2.20;;
18933;SDS011;9599;53.706;10.384;2022-12-07T10:46:40;5.13;;;2.03;;
18933;SDS011;9599;53.706;10.384;2022-12-07T10:49:24;4.27;;;2.20;;
18933;SDS011;9599;53.706;10.384;2022-12-07T10:52:16;12.07;;;2.10;;
18933;SDS011;9599;53.706;10.384;2022-12-07T10:54:57;6.60;;;2.13;;
18933;SDS011;9599;53.706;10.384;2022-12-07T10:57:42;7.70;;;2.50;;
18933;SDS011;9599;53.706;10.384;2022-12-07T11:00:18;6.03;;;2.53;;
18933;SDS011;9599;53.706;10.384;2022-12-07T11:05:56;5.33;;;2.23;;
18933;SDS011;9599;53.706;10.384;2022-12-07T11:08:38;9.27;;;2.50;;
18933;SDS011;9599;53.706;10.384;2022-12-07T11:11:16;8.83;;;3.43;;
18933;SDS011;9599;53.706;10.384;2022-12-07T11:13:52;4.80;;;2.37;;
18933;SDS011;9599;53.706;10.384;2022-12-07T11:16:32;6.00;;;2.47;;
18933;SDS011;9599;53.706;10.384;2022-12-07T11:19:24;6.43;;;2.20;;
18933;SDS011;9599;53.706;10.384;2022-12-07T11:22:06;4.77;;;2.00;;
18933;SDS011;9599;53.706;10.384;2022-12-07T11:24:40;5.27;;;2.10;;
18933;SDS011;9599;53.706;10.384;2022-12-07T11:27:20;5.00;;;2.13;;
18933;SDS011;9599;53.706;10.384;2022-12-07T11:30:07;6.10;;;2.23;;
18933;SDS011;9599;53.706;10.384;2022-12-07T11:32:44;6.27;;;2.40;;
18933;SDS011;9599;53.706;10.384;2022-12-07T11:35:22;6.83;;;2.20;;
18933;SDS011;9599;53.706;10.384;2022-12-07T11:37:59;5.90;;;2.10;;
18933;SDS011;9599;53.706;10.384;2022-12-07T11:40:31;7.80;;;2.10;;
18933;SDS011;9599;53.706;10.384;2022-12-07T11:43:04;6.60;;;2.50;;
18933;SDS011;9599;53.706;10.384;2022-12-07T11:45:40;7.67;;;2.30;;
18933;SDS011;9599;53.706;10.384;2022-12-07T11:48:10;12.73;;;5.57;;
18933;SDS011;9599;53.706;10.384;2022-12-07T11:50:45;5.27;;;2.10;;
18933;SDS011;9599;53.706;10.384;2022-12-07T11:53:20;4.43;;;1.87;;
18933;SDS011;9599;53.706;10.384;2022-12-07T11:55:54;6.83;;;2.20;;
18933;SDS011;9599;53.706;10.384;2022-12-07T11:58:35;6.10;;;2.20;;
18933;SDS011;9599;53.706;10.384;2022-12-07T12:01:14;8.67;;;2.50;;
18933;SDS011;9599;53.706;10.384;2022-12-07T12:03:49;5.57;;;2.10;;
18933;SDS011;9599;53.706;10.384;2022-12-07T12:06:20;6.77;;;2.33;;
18933;SDS011;9599;53.706;10.384;2022-12-07T12:08:50;5.33;;;1.90;;
18933;SDS011;9599;53.706;10.384;2022-12-07T12:11:50;5.83;;;1.87;;
18933;SDS011;9599;53.706;10.384;2022-12-07T12:14:52;4.90;;;1.40;;
18933;SDS011;9599;53.706;10.384;2022-12-07T12:17:35;4.60;;;1.50;;
18933;SDS011;9599;53.706;10.384;2022-12-07T12:20:18;6.57;;;1.57;;
18933;SDS011;9599;53.706;10.384;2022-12-07T12:22:51;2.90;;;1.20;;
18933;SDS011;9599;53.706;10.384;2022-12-07T12:25:25;3.90;;;1.63;;
18933;SDS011;9599;53.706;10.384;2022-12-07T12:27:55;3.47;;;1.50;;
18933;SDS011;9599;53.706;10.384;2022-12-07T12:30:29;6.87;;;2.07;;
18933;SDS011;9599;53.706;10.384;2022-12-07T12:33:03;4.20;;;1.77;;
18933;SDS011;9599;53.706;10.384;2022-12-07T12:35:34;6.37;;;1.80;;
18933;SDS011;9599;53.706;10.384;2022-12-07T12:38:26;3.13;;;1.20;;
18933;SDS011;9599;53.706;10.384;2022-12-07T12:40:58;4.13;;;1.30;;
18933;SDS011;9599;53.706;10.384;2022-12-07T12:43:47;2.60;;;1.33;;
18933;SDS011;9599;53.706;10.384;2022-12-07T12:46:37;2.50;;;1.50;;
18933;SDS011;9599;53.706;10.384;2022-12-07T12:49:30;6.47;;;1.57;;
18933;SDS011;9599;53.706;10.384;2022-12-07T12:55:27;3.43;;;1.23;;
18933;SDS011;9599;53.706;10.384;2022-12-07T12:58:27;7.27;;;1.40;;
18933;SDS011;9599;53.706;10.384;2022-12-07T13:04:14;3.00;;;1.10;;
18933;SDS011;9599;53.706;10.384;2022-12-07T13:07:03;5.23;;;1.13;;
18933;SDS011;9599;53.706;10.384;2022-12-07T13:09:32;4.03;;;1.10;;
18933;SDS011;9599;53.706;10.384;2022-12-07T13:12:03;3.83;;;1.50;;
18933;SDS011;9599;53.706;10.384;2022-12-07T13:14:41;3.13;;;1.20;;
18933;SDS011;9599;53.706;10.384;2022-12-07T13:17:11;1.47;;;1.00;;
18933;SDS011;9599;53.706;10.384;2022-12-07T13:19:59;3.10;;;1.00;;
18933;SDS011;9599;53.706;10.384;2022-12-07T13:22:35;4.93;;;1.10;;
18933;SDS011;9599;53.706;10.384;2022-12-07T13:25:26;3.60;;;1.30;;
18933;SDS011;9599;53.706;10.384;2022-12-07T13:28:00;5.33;;;1.43;;
18933;SDS011;9599;53.706;10.384;2022-12-07T13:30:35;2.60;;;1.57;;
18933;SDS011;9599;53.706;10.384;2022-12-07T13:33:10;2.93;;;1.10;;
18933;SDS011;9599;53.706;10.384;2022-12-07T13:35:39;2.83;;;1.30;;
18933;SDS011;9599;53.706;10.384;2022-12-07T13:38:16;3.23;;;1.67;;
18933;SDS011;9599;53.706;10.384;2022-12-07T13:41:00;2.97;;;1.80;;
18933;SDS011;9599;53.706;10.384;2022-12-07T13:43:29;3.07;;;1.70;;
18933;SDS011;9599;53.706;10.384;2022-12-07T13:45:59;2.63;;;1.60;;
18933;SDS011;9599;53.706;10.384;2022-12-07T13:48:30;2.03;;;1.10;;
18933;SDS011;9599;53.706;10.384;2022-12-07T13:51:00;2.17;;;1.70;;
18933;SDS011;9599;53.706;10.384;2022-12-07T13:53:29;6.70;;;2.70;;
18933;SDS011;9599;53.706;10.384;2022-12-07T13:55:58;4.97;;;1.90;;
18933;SDS011;9599;53.706;10.384;2022-12-07T13:58:29;3.37;;;1.40;;
18933;SDS011;9599;53.706;10.384;2022-12-07T14:01:01;3.40;;;1.40;;
18933;SDS011;9599;53.706;10.384;2022-12-07T14:03:30;2.50;;;2.13;;
18933;SDS011;9599;53.706;10.384;2022-12-07T14:06:13;3.43;;;1.80;;
18933;SDS011;9599;53.706;10.384;2022-12-07T14:08:48;4.73;;;1.30;;
18933;SDS011;9599;53.706;10.384;2022-12-07T14:11:28;2.87;;;1.63;;
18933;SDS011;9599;53.706;10.384;2022-12-07T14:13:57;3.30;;;1.93;;
18933;SDS011;9599;53.706;10.384;2022-12-07T14:16:29;5.00;;;1.97;;
18933;SDS011;9599;53.706;10.384;2022-12-07T14:18:59;4.00;;;1.70;;
18933;SDS011;9599;53.706;10.384;2022-12-07T14:21:29;1.60;;;1.00;;
18933;SDS011;9599;53.706;10.384;2022-12-07T14:24:04;2.70;;;1.10;;
18933;SDS011;9599;53.706;10.384;2022-12-07T14:26:37;2.27;;;1.40;;
18933;SDS011;9599;53.706;10.384;2022-12-07T14:29:19;3.40;;;1.60;;
18933;SDS011;9599;53.706;10.384;2022-12-07T14:31:49;1.73;;;1.27;;
18933;SDS011;9599;53.706;10.384;2022-12-07T14:34:19;1.93;;;1.67;;
18933;SDS011;9599;53.706;10.384;2022-12-07T14:36:47;2.40;;;1.83;;
18933;SDS011;9599;53.706;10.384;2022-12-07T14:39:15;3.30;;;1.50;;
18933;SDS011;9599;53.706;10.384;2022-12-07T14:41:43;4.93;;;1.50;;
18933;SDS011;9599;53.706;10.384;2022-12-07T14:44:20;2.50;;;1.30;;
18933;SDS011;9599;53.706;10.384;2022-12-07T14:46:56;2.17;;;1.50;;
18933;SDS011;9599;53.706;10.384;2022-12-07T14:49:44;1.43;;;1.30;;
18933;SDS011;9599;53.706;10.384;2022-12-07T14:52:13;1.90;;;1.47;;
18933;SDS011;9599;53.706;10.384;2022-12-07T14:55:07;3.47;;;1.60;;
18933;SDS011;9599;53.706;10.384;2022-12-07T14:57:42;4.67;;;1.60;;
18933;SDS011;9599;53.706;10.384;2022-12-07T15:00:13;3.40;;;1.60;;
18933;SDS011;9599;53.706;10.384;2022-12-07T15:02:45;2.93;;;1.57;;
18933;SDS011;9599;53.706;10.384;2022-12-07T15:05:13;8.83;;;1.60;;
18933;SDS011;9599;53.706;10.384;2022-12-07T15:07:43;5.30;;;1.73;;
18933;SDS011;9599;53.706;10.384;2022-12-07T15:10:13;3.17;;;1.97;;
18933;SDS011;9599;53.706;10.384;2022-12-07T15:12:49;2.77;;;1.50;;
18933;SDS011;9599;53.706;10.384;2022-12-07T15:15:17;3.00;;;1.63;;
18933;SDS011;9599;53.706;10.384;2022-12-07T15:17:46;1.93;;;1.60;;
18933;SDS011;9599;53.706;10.384;2022-12-07T15:20:14;3.63;;;1.90;;
18933;SDS011;9599;53.706;10.384;2022-12-07T15:22:43;3.20;;;1.90;;
18933;SDS011;9599;53.706;10.384;2022-12-07T15:25:12;3.43;;;2.17;;
18933;SDS011;9599;53.706;10.384;2022-12-07T15:27:41;2.90;;;1.87;;
18933;SDS011;9599;53.706;10.384;2022-12-07T15:30:09;2.97;;;1.97;;
18933;SDS011;9599;53.706;10.384;2022-12-07T15:32:37;4.63;;;2.37;;